Time;durP1;ratioP1;P1;durP2;ratioP2;P2;SDS_P1;SDS_P2;PMS_P1;PMS_P2;Temp;Humidity;BMP_temperature;BMP_pressure;BME280_temperature;BME280_humidity;BME280_pressure;Samples;Min_cycle;Max_cycle;Signal;HPM_P1;HPM_P2
2021/12/20 00:00:26;;;;;;;16.53;9.47;;;;;;;1.66;93.61;99810.87;1472198;88;21389;-82
2021/12/20 00:02:58;;;;;;;15.40;9.90;;;;;;;1.67;93.59;99825.61;1475267;88;21885;-82
2021/12/20 00:05:26;;;;;;;13.20;8.10;;;;;;;1.62;93.55;99823.78;1482563;88;22575;-83
2021/12/20 00:07:53;;;;;;;14.17;7.80;;;;;;;1.58;93.76;99821.00;1479211;87;22769;-82
2021/12/20 00:10:21;;;;;;;24.77;9.90;;;;;;;1.58;93.77;99819.69;1472560;87;21773;-82
2021/12/20 00:12:49;;;;;;;16.90;9.63;;;;;;;1.60;93.71;99824.34;1479436;88;21515;-82
2021/12/20 00:15:18;;;;;;;18.13;11.10;;;;;;;1.64;93.74;99823.66;1475019;88;21870;-83
2021/12/20 00:17:46;;;;;;;16.87;9.33;;;;;;;1.66;93.63;99834.36;1474741;88;21733;-83
2021/12/20 00:20:14;;;;;;;10.47;7.17;;;;;;;1.72;93.43;99830.49;1473169;88;21760;-82
2021/12/20 00:22:41;;;;;;;12.17;7.60;;;;;;;1.72;93.22;99831.32;1454924;88;21568;-82
2021/12/20 00:25:09;;;;;;;13.43;7.70;;;;;;;1.66;93.38;99844.79;1478316;88;22597;-82
2021/12/20 00:27:37;;;;;;;11.67;7.57;;;;;;;1.65;93.45;99846.22;1475178;88;21822;-82
2021/12/20 00:30:07;;;;;;;12.90;8.03;;;;;;;1.66;93.30;99850.48;1473695;87;21558;-82
2021/12/20 00:32:34;;;;;;;17.10;7.73;;;;;;;1.63;93.45;99848.91;1462437;88;23534;-82
2021/12/20 00:35:03;;;;;;;14.17;7.20;;;;;;;1.63;93.07;99847.61;1482267;87;21589;-82
2021/12/20 00:40:21;;;;;;;10.13;6.20;;;;;;;1.66;92.58;99848.70;1473997;87;21677;-81
2021/12/20 00:43:01;;;;;;;9.80;4.87;;;;;;;1.66;91.72;99846.09;1482206;87;21406;-80
2021/12/20 00:45:37;;;;;;;9.37;5.33;;;;;;;1.64;90.48;99844.08;1480262;87;22474;-81
2021/12/20 00:48:06;;;;;;;6.40;4.13;;;;;;;1.66;89.94;99842.18;1476343;87;21633;-81
2021/12/20 00:50:34;;;;;;;8.03;3.90;;;;;;;1.65;88.68;99844.44;1471928;88;21670;-81
2021/12/20 00:53:01;;;;;;;6.27;3.30;;;;;;;1.67;87.60;99836.05;1485097;88;21735;-81
2021/12/20 00:55:29;;;;;;;4.67;3.03;;;;;;;1.67;86.51;99845.62;1487565;87;21832;-82
2021/12/20 00:57:59;;;;;;;6.53;3.47;;;;;;;1.61;84.64;99848.17;1480489;87;21740;-80
2021/12/20 01:00:35;;;;;;;3.80;2.40;;;;;;;1.63;83.42;99846.78;1482463;87;21590;-81
2021/12/20 01:03:04;;;;;;;5.60;2.10;;;;;;;1.68;83.72;99845.53;1479626;87;21613;-82
2021/12/20 01:05:32;;;;;;;4.87;1.70;;;;;;;1.62;82.51;99839.91;1482693;87;21568;-81
2021/12/20 01:08:02;;;;;;;4.73;1.77;;;;;;;1.62;81.94;99842.52;1477423;87;21549;-82
2021/12/20 01:10:29;;;;;;;5.50;3.37;;;;;;;1.62;80.82;99849.86;1481778;87;22864;-81
2021/12/20 01:13:00;;;;;;;2.27;1.13;;;;;;;1.61;80.52;99857.30;1481210;87;22734;-81
2021/12/20 01:15:41;;;;;;;2.47;1.30;;;;;;;1.56;79.56;99856.80;1479807;88;21589;-82
2021/12/20 01:18:07;;;;;;;2.77;1.60;;;;;;;1.60;79.80;99865.25;1483547;87;21405;-81
2021/12/20 01:20:36;;;;;;;3.67;1.40;;;;;;;1.57;79.66;99876.72;1477831;87;21522;-81
2021/12/20 01:23:04;;;;;;;4.13;1.70;;;;;;;1.55;79.15;99870.77;1529732;88;22942;-82
2021/12/20 01:25:31;;;;;;;3.53;0.80;;;;;;;1.52;78.71;99862.67;1403511;88;23114;-80
2021/12/20 01:27:58;;;;;;;3.23;1.37;;;;;;;1.49;78.50;99865.97;1427315;87;21591;-80
2021/12/20 01:30:27;;;;;;;3.13;0.90;;;;;;;1.45;78.76;99872.34;1479196;88;21876;-80
2021/12/20 01:32:56;;;;;;;3.17;1.20;;;;;;;1.45;78.66;99877.56;1476126;88;21877;-80
2021/12/20 01:35:26;;;;;;;3.87;1.20;;;;;;;1.42;78.73;99867.33;1479851;87;22631;-80
2021/12/20 01:37:55;;;;;;;0.85;0.72;;;;;;;1.37;78.21;99856.37;1486528;88;21728;-80
2021/12/20 01:40:24;;;;;;;2.27;0.93;;;;;;;1.35;78.75;99853.85;1483101;87;21604;-80
2021/12/20 01:42:56;;;;;;;2.80;0.97;;;;;;;1.34;78.55;99858.23;1477974;87;21600;-80
2021/12/20 01:45:27;;;;;;;5.60;1.67;;;;;;;1.33;79.09;99855.75;1496462;88;21684;-81
2021/12/20 01:48:04;;;;;;;5.72;1.15;;;;;;;1.31;79.18;99857.61;1477886;87;21714;-81
2021/12/20 01:50:47;;;;;;;4.50;1.23;;;;;;;1.24;79.36;99865.49;1480110;87;21432;-79
2021/12/20 01:53:17;;;;;;;1.37;0.80;;;;;;;1.15;79.69;99876.03;1479087;87;22630;-82
2021/12/20 01:55:44;;;;;;;4.23;1.07;;;;;;;1.12;79.76;99878.84;1482992;88;22688;-82
2021/12/20 01:58:12;;;;;;;3.50;0.87;;;;;;;1.07;79.95;99871.81;1474492;87;22805;-82
2021/12/20 02:01:23;;;;;;;1.17;0.63;;;;;;;0.98;80.24;99874.99;1464601;88;21799;-82
2021/12/20 02:03:13;;;;;;;5.27;1.40;;;;;;;0.97;80.26;99876.77;1459211;88;21629;-81
2021/12/20 02:08:20;;;;;;;2.80;1.67;;;;;;;0.92;80.39;99876.70;1487218;88;21847;-81
2021/12/20 02:10:49;;;;;;;5.23;1.47;;;;;;;0.90;80.38;99874.21;1486240;87;22525;-81
2021/12/20 02:13:18;;;;;;;2.97;1.33;;;;;;;0.94;80.62;99880.05;1479411;88;22679;-82
2021/12/20 02:15:45;;;;;;;4.87;1.20;;;;;;;0.94;80.76;99877.45;1485498;87;22718;-82
2021/12/20 02:18:12;;;;;;;2.73;0.90;;;;;;;0.90;80.70;99872.44;1482090;88;22621;-82
2021/12/20 02:20:40;;;;;;;3.47;0.90;;;;;;;0.89;80.70;99875.12;1484705;87;21691;-82
2021/12/20 02:23:08;;;;;;;3.03;1.30;;;;;;;0.83;80.63;99873.75;1471914;87;21643;-82
2021/12/20 02:25:36;;;;;;;2.43;1.17;;;;;;;0.77;80.83;99876.75;1481137;87;21664;-82
2021/12/20 02:28:12;;;;;;;5.60;1.33;;;;;;;0.71;80.99;99883.66;1488793;87;22162;-81
2021/12/20 02:38:42;;;;;;;3.40;1.20;;;;;;;0.57;80.28;99900.63;1484673;88;21615;-81
2021/12/20 02:41:26;;;;;;;3.63;1.00;;;;;;;0.55;80.30;99896.01;1486436;87;22805;-82
2021/12/20 02:43:56;;;;;;;2.50;1.47;;;;;;;0.58;80.59;99888.00;1480535;87;23789;-82
2021/12/20 02:48:56;;;;;;;4.33;1.20;;;;;;;0.56;80.42;99891.98;1486742;87;21530;-82
2021/12/20 02:51:26;;;;;;;2.23;0.90;;;;;;;0.60;80.66;99899.97;1476258;87;21567;-82
2021/12/20 02:53:55;;;;;;;2.77;1.23;;;;;;;0.60;80.41;99897.83;1482758;88;22519;-82
2021/12/20 02:56:23;;;;;;;2.27;0.97;;;;;;;0.62;80.67;99907.23;1477213;88;22560;-82
2021/12/20 02:58:52;;;;;;;1.60;0.97;;;;;;;0.58;80.56;99912.27;1476939;87;21874;-82
2021/12/20 03:01:20;;;;;;;4.43;1.40;;;;;;;0.54;80.73;99912.55;1482053;87;22772;-82
2021/12/20 03:03:51;;;;;;;2.33;1.47;;;;;;;0.52;80.96;99911.36;1476714;88;21657;-82
2021/12/20 03:06:24;;;;;;;2.75;1.67;;;;;;;0.45;81.38;99910.88;1478753;88;21640;-81
2021/12/20 03:08:53;;;;;;;3.30;1.07;;;;;;;0.45;81.64;99913.95;1480960;87;22364;-81
2021/12/20 03:11:26;;;;;;;3.63;1.50;;;;;;;0.44;81.63;99911.83;1481984;88;21693;-82
2021/12/20 03:14:08;;;;;;;3.70;1.40;;;;;;;0.45;81.75;99920.00;1475932;87;21449;-81
2021/12/20 03:16:27;;;;;;;3.00;1.20;;;;;;;0.44;81.88;99924.84;1475794;88;21659;-81
2021/12/20 03:18:54;;;;;;;2.07;1.40;;;;;;;0.44;81.94;99926.14;1481005;87;23765;-81
2021/12/20 03:21:21;;;;;;;4.97;1.80;;;;;;;0.45;82.11;99934.31;1483322;87;21610;-81
2021/12/20 03:23:48;;;;;;;6.03;2.03;;;;;;;0.51;82.16;99933.57;1479943;88;21675;-81
2021/12/20 03:26:15;;;;;;;3.07;1.40;;;;;;;0.54;82.20;99937.28;1477911;87;21603;-81
2021/12/20 03:28:42;;;;;;;3.33;1.40;;;;;;;0.51;82.13;99946.12;1475783;87;22090;-81
2021/12/20 03:31:09;;;;;;;4.47;1.20;;;;;;;0.48;82.09;99948.91;1475252;87;21886;-81
2021/12/20 03:33:37;;;;;;;3.40;1.37;;;;;;;0.44;82.12;99948.28;1475335;87;21603;-82
2021/12/20 03:36:05;;;;;;;4.00;1.43;;;;;;;0.46;82.32;99950.77;1479361;88;21670;-81
2021/12/20 03:38:32;;;;;;;3.27;1.67;;;;;;;0.45;82.35;99952.55;1459809;88;23052;-81
2021/12/20 03:41:00;;;;;;;3.43;1.57;;;;;;;0.45;82.35;99962.95;1477184;88;22714;-81
2021/12/20 03:43:31;;;;;;;4.23;1.43;;;;;;;0.43;82.51;99959.63;1478371;88;22710;-81
2021/12/20 03:45:57;;;;;;;3.63;1.47;;;;;;;0.36;82.53;99969.20;1488343;88;22548;-82
2021/12/20 03:48:26;;;;;;;3.90;1.37;;;;;;;0.32;82.39;99971.16;1480620;88;22754;-82
2021/12/20 03:50:55;;;;;;;6.43;1.37;;;;;;;0.27;82.70;99971.91;1480880;87;21737;-82
2021/12/20 03:53:23;;;;;;;3.27;1.50;;;;;;;0.21;83.06;99978.31;1481006;88;21874;-82
2021/12/20 03:55:50;;;;;;;3.50;1.77;;;;;;;0.19;82.87;99972.83;1479101;87;21787;-82
2021/12/20 03:58:17;;;;;;;4.20;2.30;;;;;;;0.21;82.93;99974.88;1482961;87;21764;-82
2021/12/20 04:00:44;;;;;;;4.77;2.43;;;;;;;0.22;83.01;99979.15;1480653;87;21735;-82
2021/12/20 04:03:13;;;;;;;3.93;1.77;;;;;;;0.21;82.93;99978.31;1472748;87;21558;-81
2021/12/20 04:05:42;;;;;;;7.63;2.57;;;;;;;0.22;82.93;99973.94;1491241;87;22941;-81
2021/12/20 04:08:09;;;;;;;2.70;1.73;;;;;;;0.23;82.91;99965.19;1489993;87;21798;-81
2021/12/20 04:10:37;;;;;;;3.87;1.97;;;;;;;0.25;83.09;99973.75;1480818;87;22586;-81
2021/12/20 04:13:04;;;;;;;3.50;2.00;;;;;;;0.27;83.07;99975.81;1482069;87;22605;-81
2021/12/20 04:15:32;;;;;;;3.53;2.13;;;;;;;0.29;83.00;99970.05;1480627;87;21619;-81
2021/12/20 04:17:59;;;;;;;4.73;2.37;;;;;;;0.34;83.11;99977.09;1481651;87;21793;-81
2021/12/20 04:20:26;;;;;;;5.63;2.60;;;;;;;0.41;83.27;99974.98;1488299;87;22505;-82
2021/12/20 04:22:53;;;;;;;5.13;2.40;;;;;;;0.48;83.26;99981.94;1484299;88;21543;-81
2021/12/20 04:25:21;;;;;;;7.20;2.67;;;;;;;0.55;83.19;99984.55;1487139;88;21647;-81
2021/12/20 04:27:48;;;;;;;5.50;3.00;;;;;;;0.62;82.80;99980.63;1473691;88;21559;-81
2021/12/20 04:30:16;;;;;;;4.83;2.60;;;;;;;0.66;82.53;99983.39;1487018;87;21692;-81
2021/12/20 04:32:45;;;;;;;4.00;2.00;;;;;;;0.71;82.24;99981.81;1479144;87;21587;-79
2021/12/20 04:35:16;;;;;;;4.13;2.63;;;;;;;0.77;81.92;99983.56;1475960;88;21606;-78
2021/12/20 04:37:46;;;;;;;6.62;3.00;;;;;;;0.80;81.89;99984.67;1483053;87;22496;-78
2021/12/20 04:40:21;;;;;;;4.33;2.22;;;;;;;0.84;81.91;99991.85;1475727;87;21360;-78
2021/12/20 04:42:53;;;;;;;4.90;2.50;;;;;;;0.90;81.17;99994.06;1481142;87;21558;-78
2021/12/20 04:45:23;;;;;;;4.00;2.10;;;;;;;0.94;81.18;99998.14;1483490;87;22629;-78
2021/12/20 04:47:51;;;;;;;4.17;1.80;;;;;;;1.00;81.22;100002.13;1480283;87;22628;-78
2021/12/20 04:50:19;;;;;;;4.20;2.30;;;;;;;1.08;81.07;100006.39;1484639;88;22924;-78
2021/12/20 04:52:46;;;;;;;3.67;2.33;;;;;;;1.13;80.33;100003.03;1482757;87;22549;-77
2021/12/20 04:55:14;;;;;;;3.17;1.80;;;;;;;1.17;79.81;100007.11;1485400;88;21639;-78
2021/12/20 04:57:42;;;;;;;4.87;1.20;;;;;;;1.21;78.84;100005.13;1479595;87;21643;-78
2021/12/20 05:00:16;;;;;;;4.03;2.17;;;;;;;1.24;77.58;100007.09;1482831;87;21537;-80
2021/12/20 05:02:43;;;;;;;7.30;2.40;;;;;;;1.23;75.49;100005.41;1474760;88;21544;-80
2021/12/20 05:05:11;;;;;;;6.37;1.70;;;;;;;1.22;74.31;100012.87;1485428;88;21645;-80
2021/12/20 05:07:39;;;;;;;3.10;1.60;;;;;;;1.19;73.51;100010.46;1485792;88;21633;-80
2021/12/20 05:10:12;;;;;;;3.57;1.80;;;;;;;1.16;72.36;100006.75;1489709;87;21470;-80
2021/12/20 05:12:40;;;;;;;4.23;1.30;;;;;;;1.11;71.77;100016.63;1482513;87;21904;-80
2021/12/20 05:15:08;;;;;;;3.67;1.97;;;;;;;1.06;71.72;100023.42;1475959;88;21462;-80
2021/12/20 05:17:36;;;;;;;6.90;1.57;;;;;;;1.01;71.61;100022.89;1478606;88;23545;-80
2021/12/20 05:20:05;;;;;;;5.17;1.93;;;;;;;0.95;69.99;100019.38;1479149;88;21762;-80
2021/12/20 05:22:32;;;;;;;2.30;1.00;;;;;;;0.96;69.58;100024.12;1484448;88;21489;-80
2021/12/20 05:24:59;;;;;;;2.30;0.93;;;;;;;0.95;69.53;100023.28;1476000;88;23173;-81
2021/12/20 05:27:26;;;;;;;7.07;3.03;;;;;;;0.95;68.68;100029.80;1478401;88;21774;-80
2021/12/20 05:29:54;;;;;;;12.43;5.60;;;;;;;0.96;67.56;100030.63;1483892;87;21580;-80
2021/12/20 05:32:21;;;;;;;19.17;8.40;;;;;;;0.98;68.03;100028.73;1482347;88;21759;-80
2021/12/20 05:34:48;;;;;;;38.07;14.97;;;;;;;0.98;67.25;100029.60;1474998;88;21764;-80
2021/12/20 05:37:16;;;;;;;23.37;10.20;;;;;;;1.00;67.54;100031.62;1484801;86;22615;-80
2021/12/20 05:39:44;;;;;;;19.57;7.70;;;;;;;1.02;67.18;100031.55;1480253;88;21585;-81
2021/12/20 05:42:12;;;;;;;19.50;8.43;;;;;;;1.08;67.36;100035.89;1480167;87;21796;-81
2021/12/20 05:44:39;;;;;;;4.80;2.23;;;;;;;1.10;66.77;100044.47;1488249;87;21659;-80
2021/12/20 05:47:06;;;;;;;1.77;1.10;;;;;;;1.11;66.79;100036.17;1486497;88;22558;-81
2021/12/20 05:49:34;;;;;;;3.87;1.87;;;;;;;1.12;66.81;100037.83;1451110;88;21570;-81
2021/12/20 05:52:05;;;;;;;4.27;1.80;;;;;;;1.11;66.63;100040.08;1473853;88;21578;-81
2021/12/20 05:54:32;;;;;;;;;;;;;;;1.11;67.55;100044.82;1483885;87;21700;-81
2021/12/20 05:56:59;;;;;;;7.10;3.07;;;;;;;1.08;66.32;100046.80;1445607;90;20803;-81
2021/12/20 05:59:26;;;;;;;7.50;2.33;;;;;;;1.03;67.03;100047.06;1441521;91;21727;-80
2021/12/20 06:01:53;;;;;;;4.43;2.50;;;;;;;0.99;65.17;100049.51;1449815;90;21588;-80
2021/12/20 06:04:21;;;;;;;5.93;2.10;;;;;;;0.96;65.33;100054.08;1446341;89;21578;-80
2021/12/20 06:06:48;;;;;;;5.97;2.17;;;;;;;0.94;66.12;100055.94;1444111;90;21533;-81
2021/12/20 06:09:15;;;;;;;5.20;2.83;;;;;;;0.90;66.22;100057.91;1441960;90;22368;-81
2021/12/20 06:11:42;;;;;;;3.47;2.27;;;;;;;0.86;65.75;100062.91;1449506;89;21803;-82
2021/12/20 06:14:10;;;;;;;3.40;1.77;;;;;;;0.87;66.60;100067.22;1445768;89;21804;-82
2021/12/20 06:16:37;;;;;;;6.07;3.27;;;;;;;0.88;67.61;100069.70;1447378;90;21578;-83
2021/12/20 06:19:04;;;;;;;5.53;3.43;;;;;;;0.88;68.02;100064.50;1451968;89;21736;-81
2021/12/20 06:21:32;;;;;;;4.47;2.97;;;;;;;0.88;67.64;100066.27;1446871;90;22537;-82
2021/12/20 06:23:59;;;;;;;8.30;5.20;;;;;;;0.88;68.02;100066.27;1428935;90;21550;-82
2021/12/20 06:26:26;;;;;;;12.50;7.33;;;;;;;0.88;67.78;100076.22;1422262;90;21626;-80
2021/12/20 06:28:54;;;;;;;3.50;2.73;;;;;;;0.84;67.11;100072.62;1436544;90;21643;-80
2021/12/20 06:31:21;;;;;;;3.10;1.83;;;;;;;0.82;68.06;100077.91;1432632;91;22448;-80
2021/12/20 06:33:48;;;;;;;3.43;1.67;;;;;;;0.79;68.02;100080.70;1401694;93;22637;-80
2021/12/20 06:36:18;;;;;;;5.03;2.10;;;;;;;0.78;68.43;100081.64;1426836;91;21504;-80
2021/12/20 06:38:46;;;;;;;4.03;1.87;;;;;;;0.78;68.34;100092.06;1420041;91;22510;-80
2021/12/20 06:41:14;;;;;;;4.50;2.13;;;;;;;0.76;68.83;100087.41;1422853;92;23343;-81
2021/12/20 06:43:41;;;;;;;4.47;2.10;;;;;;;0.78;69.09;100084.25;1413983;92;22461;-80
2021/12/20 06:46:08;;;;;;;6.87;2.17;;;;;;;0.80;69.24;100088.05;1425089;91;21827;-81
2021/12/20 06:48:36;;;;;;;7.60;2.47;;;;;;;0.83;69.36;100097.80;1421189;92;21696;-81
2021/12/20 06:51:03;;;;;;;5.63;2.80;;;;;;;0.81;69.24;100099.69;1409651;92;22555;-80
2021/12/20 06:53:30;;;;;;;6.63;2.50;;;;;;;0.79;69.17;100091.59;1416670;91;22695;-79
2021/12/20 06:55:59;;;;;;;5.17;2.20;;;;;;;0.75;69.12;100097.46;1423053;92;22376;-79
2021/12/20 06:58:26;;;;;;;5.27;2.60;;;;;;;0.71;68.51;100095.95;1425102;91;22417;-80
2021/12/20 07:00:54;;;;;;;5.93;3.23;;;;;;;0.70;68.40;100104.71;1430220;91;21727;-78
2021/12/20 07:03:22;;;;;;;7.47;2.97;;;;;;;0.71;68.65;100097.73;1411329;92;21917;-79
2021/12/20 07:05:49;;;;;;;6.53;2.63;;;;;;;0.71;68.82;100097.26;1412236;91;22259;-79
2021/12/20 07:08:16;;;;;;;3.97;2.27;;;;;;;0.74;69.01;100100.98;1411124;91;21759;-79
2021/12/20 07:10:44;;;;;;;7.00;2.50;;;;;;;0.75;69.10;100103.98;1430877;91;21782;-78
2021/12/20 07:13:11;;;;;;;6.13;3.00;;;;;;;0.75;68.94;100110.48;1407697;91;21830;-78
2021/12/20 07:15:39;;;;;;;5.80;2.80;;;;;;;0.74;68.48;100102.28;1428890;90;21765;-81
2021/12/20 07:18:07;;;;;;;7.27;3.33;;;;;;;0.71;68.28;100103.77;1433639;90;22556;-89
2021/12/20 07:20:38;;;;;;;6.90;2.43;;;;;;;0.71;67.65;100105.08;1430687;90;21721;-92
2021/12/20 07:23:05;;;;;;;6.55;2.52;;;;;;;0.69;67.79;100118.64;1441662;89;21633;-91
2021/12/20 07:25:32;;;;;;;4.30;2.37;;;;;;;0.68;67.71;100115.67;1439487;90;21353;-92
2021/12/20 07:27:59;;;;;;;7.60;3.93;;;;;;;0.69;67.69;100108.23;1430932;90;22561;-93
2021/12/20 07:30:27;;;;;;;6.60;2.80;;;;;;;0.73;68.05;100117.55;1432877;90;21682;-95
2021/12/20 07:32:54;;;;;;;8.30;2.67;;;;;;;0.77;68.19;100120.33;1430108;90;22298;-93
2021/12/20 07:35:22;;;;;;;8.37;2.90;;;;;;;0.78;68.00;100121.19;1440125;90;22099;-93
2021/12/20 07:37:53;;;;;;;5.43;2.40;;;;;;;0.78;67.72;100118.12;1429514;90;21637;-93
2021/12/20 07:40:20;;;;;;;7.87;2.87;;;;;;;0.81;67.99;100122.31;1444771;90;21718;-93
2021/12/20 07:42:47;;;;;;;4.17;2.63;;;;;;;0.86;67.74;100126.31;1433995;90;21731;-94
2021/12/20 07:45:15;;;;;;;5.30;2.83;;;;;;;0.88;67.43;100124.90;1441414;90;21799;-93
2021/12/20 07:47:42;;;;;;;6.23;2.33;;;;;;;0.90;67.04;100129.56;1452039;89;21692;-92
2021/12/20 07:50:09;;;;;;;8.03;2.50;;;;;;;0.95;67.77;100136.64;1435561;90;21582;-92
2021/12/20 07:52:36;;;;;;;7.03;2.37;;;;;;;1.03;67.90;100143.50;1423128;90;21487;-92
2021/12/20 07:55:04;;;;;;;13.03;4.23;;;;;;;1.15;68.03;100139.30;1436077;90;21588;-93
2021/12/20 07:57:32;;;;;;;6.53;2.70;;;;;;;1.27;67.98;100143.78;1435404;90;21759;-93
2021/12/20 07:59:59;;;;;;;8.90;3.73;;;;;;;1.39;67.63;100142.64;1436995;90;21622;-93
2021/12/20 08:02:26;;;;;;;7.03;3.40;;;;;;;1.49;67.43;100149.77;1428845;90;21500;-92
2021/12/20 08:04:54;;;;;;;9.07;3.13;;;;;;;1.61;66.62;100147.33;1434567;89;21633;-92
2021/12/20 08:07:22;;;;;;;8.30;3.13;;;;;;;1.70;66.90;100149.37;1411742;90;21673;-93
2021/12/20 08:09:50;;;;;;;4.30;2.40;;;;;;;1.78;65.01;100155.78;1434777;90;22841;-87
2021/12/20 08:12:21;;;;;;;5.57;3.17;;;;;;;1.91;66.40;100161.52;1432459;90;21625;-88
2021/12/20 08:14:48;;;;;;;7.25;3.70;;;;;;;1.98;65.77;100159.69;1436848;90;21658;-86
2021/12/20 08:17:15;;;;;;;4.53;3.23;;;;;;;2.06;65.99;100160.98;1425433;90;21398;-87
2021/12/20 08:19:42;;;;;;;8.20;3.30;;;;;;;2.12;64.81;100157.49;1425979;90;21801;-87
2021/12/20 08:22:10;;;;;;;8.20;3.37;;;;;;;2.14;64.08;100164.77;1445631;90;21933;-88
2021/12/20 08:24:37;;;;;;;6.23;3.23;;;;;;;2.10;64.26;100162.00;1441225;90;22219;-88
2021/12/20 08:27:05;;;;;;;6.40;3.20;;;;;;;2.09;63.73;100156.39;1427890;90;22774;-87
2021/12/20 08:29:32;;;;;;;8.47;3.20;;;;;;;2.14;64.33;100167.38;1440197;90;21901;-88
2021/12/20 08:32:06;;;;;;;6.50;2.90;;;;;;;2.30;63.10;100170.28;1438978;90;22066;-86
2021/12/20 08:34:35;;;;;;;8.80;2.60;;;;;;;2.30;63.10;100170.28;1446939;89;23801;-87
2021/12/20 08:37:03;;;;;;;8.80;3.63;;;;;;;2.54;62.49;100163.92;1435442;90;21755;-86
2021/12/20 08:39:31;;;;;;;6.53;3.60;;;;;;;2.54;62.49;100163.92;1439549;90;21936;-87
2021/12/20 08:42:00;;;;;;;7.20;3.37;;;;;;;2.62;62.04;100177.31;1440549;90;21823;-87
2021/12/20 08:44:27;;;;;;;5.57;2.77;;;;;;;2.71;61.96;100179.30;1444971;90;22258;-87
2021/12/20 08:46:55;;;;;;;5.60;2.63;;;;;;;2.89;62.61;100181.88;1442322;88;22087;-87
2021/12/20 08:49:23;;;;;;;4.03;2.37;;;;;;;2.81;60.93;100169.05;1462667;88;22123;-87
2021/12/20 08:51:51;;;;;;;6.00;3.23;;;;;;;2.81;60.93;100169.05;1427288;88;21917;-88
2021/12/20 08:54:18;;;;;;;5.27;2.70;;;;;;;2.74;62.47;100178.26;1463753;88;21999;-88
2021/12/20 08:56:45;;;;;;;8.43;4.03;;;;;;;2.77;62.73;100181.97;1428261;88;23193;-87
2021/12/20 08:59:12;;;;;;;6.77;2.87;;;;;;;2.77;62.73;100181.97;1463081;88;22228;-87
2021/12/20 09:01:40;;;;;;;4.57;2.57;;;;;;;2.80;62.06;100176.53;1462100;88;24035;-87
2021/12/20 09:04:09;;;;;;;5.10;2.83;;;;;;;2.92;62.38;100192.69;1460329;88;22329;-88
2021/12/20 09:06:42;;;;;;;5.60;3.00;;;;;;;3.00;61.29;100202.16;1465962;88;23385;-88
2021/12/20 09:09:13;;;;;;;6.03;2.90;;;;;;;3.12;60.47;100204.39;1460440;88;22712;-86
2021/12/20 09:11:41;;;;;;;;;;;;;;;3.25;58.97;100200.45;1465292;88;22101;-85
2021/12/20 09:14:08;;;;;;;10.73;2.80;;;;;;;3.38;57.80;100193.44;1463416;88;20364;-87
2021/12/20 09:16:35;;;;;;;7.13;2.30;;;;;;;3.58;59.15;100197.27;1461477;88;22250;-87
2021/12/20 09:19:03;;;;;;;4.37;1.63;;;;;;;3.71;58.50;100194.16;1465158;88;23174;-86
2021/12/20 09:21:30;;;;;;;5.50;1.73;;;;;;;3.74;57.90;100190.45;1465922;88;22114;-87
2021/12/20 09:23:58;;;;;;;4.57;2.70;;;;;;;3.66;55.99;100186.27;1468112;88;22204;-87
2021/12/20 09:26:25;;;;;;;4.83;2.37;;;;;;;3.57;56.64;100186.45;1457822;87;22227;-87
2021/12/20 09:28:53;;;;;;;7.00;2.97;;;;;;;3.53;57.00;100177.95;1460152;88;23067;-87
2021/12/20 09:31:20;;;;;;;4.07;1.80;;;;;;;3.50;57.74;100169.49;1463752;88;21405;-86
2021/12/20 09:33:47;;;;;;;6.03;2.23;;;;;;;3.46;58.58;100172.80;1468589;88;22159;-88
2021/12/20 09:36:14;;;;;;;6.67;1.93;;;;;;;3.50;58.37;100174.73;1465133;88;22117;-86
2021/12/20 09:38:42;;;;;;;4.17;2.37;;;;;;;3.64;58.48;100173.75;1462208;88;22123;-86
2021/12/20 09:43:44;;;;;;;5.00;2.40;;;;;;;3.90;58.65;100187.11;1465625;88;21432;-87
2021/12/20 09:46:12;;;;;;;5.27;2.70;;;;;;;3.78;56.23;100181.45;1467754;88;22826;-87
2021/12/20 09:48:49;;;;;;;5.87;2.33;;;;;;;3.68;56.55;100200.89;1467382;87;21721;-88
2021/12/20 09:51:17;;;;;;;3.67;2.10;;;;;;;3.58;55.87;100185.02;1425621;88;21251;-87
2021/12/20 09:53:45;;;;;;;3.53;2.00;;;;;;;3.61;56.83;100193.13;1383548;88;22162;-88
2021/12/20 09:56:12;;;;;;;4.63;2.37;;;;;;;3.61;56.83;100193.13;1539638;88;22103;-88
2021/12/20 09:58:41;;;;;;;4.57;2.50;;;;;;;3.85;56.28;100106.75;1427351;88;21464;-87
2021/12/20 10:01:15;;;;;;;11.03;3.27;;;;;;;4.33;56.56;100185.28;1372784;88;21369;-85
2021/12/20 10:03:43;;;;;;;4.73;2.37;;;;;;;5.25;54.71;100185.34;1425101;88;21399;-85
2021/12/20 10:06:10;;;;;;;9.07;2.67;;;;;;;5.99;51.28;100177.27;1379761;88;21296;-86
2021/12/20 10:08:48;;;;;;;6.00;2.70;;;;;;;6.49;52.12;100178.02;1539706;88;21258;-85
2021/12/20 10:11:20;;;;;;;4.13;2.83;;;;;;;6.88;51.86;100175.16;1419311;88;21414;-86
2021/12/20 10:13:48;;;;;;;4.78;2.62;;;;;;;7.22;49.18;100161.73;1378297;89;21332;-87
2021/12/20 10:16:20;;;;;;;3.53;2.40;;;;;;;7.56;49.15;100158.31;1490776;88;21243;-87
2021/12/20 10:18:49;;;;;;;3.00;2.07;;;;;;;7.97;48.41;100155.16;1518031;88;22162;-86
2021/12/20 10:21:17;;;;;;;5.33;2.90;;;;;;;8.16;46.96;100164.03;1369883;89;21252;-87
2021/12/20 10:23:48;;;;;;;3.70;3.00;;;;;;;7.90;46.82;100161.92;1424123;88;21274;-87
2021/12/20 10:26:21;;;;;;;4.57;3.07;;;;;;;8.11;47.50;100164.43;1422205;88;21245;-86
2021/12/20 10:28:52;;;;;;;5.80;3.40;;;;;;;8.29;46.61;100160.64;1445248;88;21472;-86
2021/12/20 10:31:26;;;;;;;4.50;3.20;;;;;;;8.33;46.00;100162.84;1458756;88;21464;-88
2021/12/20 10:34:00;;;;;;;8.50;3.30;;;;;;;8.25;44.89;100164.52;1444877;88;21502;-86
2021/12/20 10:36:28;;;;;;;5.63;3.37;;;;;;;8.16;45.19;100165.34;1446701;88;21399;-86
2021/12/20 10:38:57;;;;;;;5.03;3.33;;;;;;;7.85;47.04;100163.67;1437743;88;21362;-87
2021/12/20 10:41:39;;;;;;;4.73;2.97;;;;;;;7.60;47.48;100162.86;1453762;90;21590;-87
2021/12/20 10:44:19;;;;;;;2.80;2.20;;;;;;;7.32;47.53;100169.69;1432407;90;21490;-87
2021/12/20 10:46:52;;;;;;;6.20;2.50;;;;;;;6.83;47.79;100183.09;1425442;91;21606;-87
2021/12/20 10:49:28;;;;;;;5.13;2.30;;;;;;;6.60;47.93;100188.48;1416606;91;22338;-87
2021/12/20 10:51:56;;;;;;;4.17;2.60;;;;;;;6.26;48.05;100187.31;1433513;90;21491;-87
2021/12/20 10:54:30;;;;;;;4.60;2.60;;;;;;;5.98;48.90;100182.15;1432095;90;21598;-87
2021/12/20 10:57:05;;;;;;;4.97;2.30;;;;;;;5.72;48.40;100186.84;1430294;90;21546;-87
2021/12/20 10:59:36;;;;;;;4.13;2.50;;;;;;;5.92;49.77;100189.67;1424186;90;21370;-86
2021/12/20 11:05:02;;;;;;;6.57;2.47;;;;;;;5.99;48.01;100181.70;1431899;90;21458;-88
2021/12/20 11:10:14;;;;;;;6.70;3.10;;;;;;;5.79;48.50;100179.33;1434431;90;22367;-87
2021/12/20 11:12:42;;;;;;;6.03;3.33;;;;;;;6.12;48.27;100177.09;1431229;90;21355;-87
2021/12/20 11:15:13;;;;;;;8.23;3.77;;;;;;;6.58;47.12;100184.30;1429775;90;21488;-87
2021/12/20 11:17:44;;;;;;;6.77;3.13;;;;;;;6.90;47.85;100184.23;1426681;90;21960;-87
2021/12/20 11:20:20;;;;;;;7.03;2.77;;;;;;;7.28;47.97;100179.66;1429780;90;21562;-86
2021/12/20 11:22:48;;;;;;;3.53;2.77;;;;;;;7.67;47.41;100185.86;1432275;90;21325;-87
2021/12/20 11:25:15;;;;;;;6.13;2.80;;;;;;;7.80;44.52;100179.53;1432918;90;21429;-87
2021/12/20 11:27:53;;;;;;;3.77;2.53;;;;;;;7.49;44.69;100173.00;1435467;90;22396;-87
2021/12/20 11:30:22;;;;;;;5.47;2.50;;;;;;;7.09;44.47;100183.02;1433388;90;21584;-86
2021/12/20 11:32:50;;;;;;;4.53;2.97;;;;;;;6.78;45.53;100176.89;1432847;90;21318;-87
2021/12/20 11:35:22;;;;;;;4.77;2.97;;;;;;;6.53;47.25;100178.10;1432790;90;21341;-86
2021/12/20 11:37:49;;;;;;;6.17;3.10;;;;;;;6.30;47.89;100180.86;1438067;90;22265;-87
2021/12/20 11:40:19;;;;;;;5.27;3.00;;;;;;;6.13;48.76;100180.09;1433285;90;21370;-87
2021/12/20 11:42:50;;;;;;;9.40;2.83;;;;;;;6.00;48.95;100176.78;1424915;91;22442;-88
2021/12/20 11:45:19;;;;;;;5.12;3.02;;;;;;;5.83;48.52;100169.75;1428380;91;22996;-87
2021/12/20 11:48:01;;;;;;;6.90;3.33;;;;;;;5.68;49.83;100180.66;1435915;90;21666;-87
2021/12/20 11:50:41;;;;;;;6.33;3.60;;;;;;;5.60;50.27;100178.63;1458394;89;21359;-88
2021/12/20 11:53:14;;;;;;;9.67;4.27;;;;;;;5.52;50.63;100183.65;1438150;90;22364;-87
2021/12/20 11:55:46;;;;;;;4.30;2.37;;;;;;;5.45;51.50;100185.11;1454651;89;21419;-87
2021/12/20 11:58:21;;;;;;;4.27;2.37;;;;;;;5.34;50.97;100184.62;1456928;89;21561;-87
2021/12/20 12:00:51;;;;;;;4.60;2.43;;;;;;;5.21;50.52;100184.76;1435872;90;21481;-87
2021/12/20 12:03:38;;;;;;;3.67;1.87;;;;;;;5.09;51.11;100188.30;1432905;91;21473;-86
2021/12/20 12:06:13;;;;;;;6.60;2.67;;;;;;;4.92;50.85;100188.28;1442141;89;22262;-85
2021/12/20 12:08:55;;;;;;;8.40;4.10;;;;;;;4.79;51.52;100185.77;1438600;90;21622;-86